Time;durP1;ratioP1;P1;durP2;ratioP2;P2;SDS_P1;SDS_P2;PMS_P1;PMS_P2;Temp;Humidity;BMP_temperature;BMP_pressure;BME280_temperature;BME280_humidity;BME280_pressure;Samples;Min_cycle;Max_cycle;Signal;HPM_P1;HPM_P2
2022/02/23 00:00:09;;;;;;;12.32;2.90;;;;;;;;;;527881;28;1421;-78
2022/02/23 00:00:25;;;;;;;14.63;3.13;;;;;;;;;;526479;28;1250;-78
2022/02/23 00:00:42;;;;;;;16.05;3.33;;;;;;;;;;526910;28;827;-78
2022/02/23 00:00:57;;;;;;;13.43;3.00;;;;;;;;;;526862;28;1535;-78
2022/02/23 00:01:12;;;;;;;13.67;3.10;;;;;;;;;;526686;28;1099;-78
2022/02/23 00:01:30;;;;;;;13.35;3.10;;;;;;;;;;527153;28;783;-78
2022/02/23 00:01:46;;;;;;;12.77;3.00;;;;;;;;;;528347;28;729;-78
2022/02/23 00:02:01;;;;;;;13.15;3.00;;;;;;;;;;528433;28;954;-78
2022/02/23 00:02:16;;;;;;;14.73;2.83;;;;;;;;;;530198;27;755;-78
2022/02/23 00:02:32;;;;;;;13.60;2.90;;;;;;;;;;528362;28;1323;-79
2022/02/23 00:02:47;;;;;;;11.07;2.70;;;;;;;;;;526441;28;863;-79
2022/02/23 00:03:02;;;;;;;12.47;2.77;;;;;;;;;;524127;28;804;-79
2022/02/23 00:03:17;;;;;;;13.23;2.95;;;;;;;;;;524868;28;1440;-79
2022/02/23 00:03:33;;;;;;;13.53;3.10;;;;;;;;;;526420;28;852;-79
2022/02/23 00:03:48;;;;;;;12.80;3.10;;;;;;;;;;526720;28;894;-79
2022/02/23 00:04:04;;;;;;;12.00;2.73;;;;;;;;;;526383;28;800;-79
2022/02/23 00:04:19;;;;;;;13.68;2.70;;;;;;;;;;526807;28;732;-79
2022/02/23 00:04:34;;;;;;;13.73;3.10;;;;;;;;;;528590;28;828;-80
2022/02/23 00:04:49;;;;;;;13.82;3.28;;;;;;;;;;526262;28;765;-78
2022/02/23 00:05:06;;;;;;;15.27;3.00;;;;;;;;;;528548;28;1438;-77
2022/02/23 00:05:22;;;;;;;15.48;2.90;;;;;;;;;;528023;28;757;-78
2022/02/23 00:05:39;;;;;;;13.75;2.75;;;;;;;;;;528465;28;902;-78
2022/02/23 00:05:54;;;;;;;13.85;2.75;;;;;;;;;;528566;28;776;-79
2022/02/23 00:06:09;;;;;;;13.43;2.55;;;;;;;;;;527190;28;879;-78
2022/02/23 00:06:25;;;;;;;12.50;2.47;;;;;;;;;;526598;28;1166;-78
2022/02/23 00:06:41;;;;;;;12.87;2.70;;;;;;;;;;524820;28;1342;-78
2022/02/23 00:06:56;;;;;;;14.83;3.07;;;;;;;;;;525998;28;1369;-78
2022/02/23 00:07:11;;;;;;;14.50;3.03;;;;;;;;;;525204;28;768;-79
2022/02/23 00:07:26;;;;;;;11.70;2.90;;;;;;;;;;528255;28;840;-78
2022/02/23 00:07:42;;;;;;;11.33;2.87;;;;;;;;;;528970;28;902;-78
2022/02/23 00:07:57;;;;;;;13.77;2.87;;;;;;;;;;530570;27;831;-79
2022/02/23 00:08:12;;;;;;;13.80;2.63;;;;;;;;;;531003;27;960;-78
2022/02/23 00:08:27;;;;;;;13.73;2.73;;;;;;;;;;528786;27;819;-79
2022/02/23 00:08:43;;;;;;;14.27;3.20;;;;;;;;;;530657;27;728;-78
2022/02/23 00:08:58;;;;;;;12.90;2.97;;;;;;;;;;528707;28;907;-78
2022/02/23 00:09:13;;;;;;;12.55;2.65;;;;;;;;;;528516;28;729;-78
2022/02/23 00:09:28;;;;;;;12.80;2.73;;;;;;;;;;526275;28;1597;-78
2022/02/23 00:09:44;;;;;;;12.37;2.80;;;;;;;;;;526425;28;1035;-79
2022/02/23 00:09:59;;;;;;;12.70;2.90;;;;;;;;;;525946;28;1611;-78
2022/02/23 00:10:14;;;;;;;13.03;2.90;;;;;;;;;;528636;28;756;-78
2022/02/23 00:10:30;;;;;;;12.57;2.97;;;;;;;;;;531250;27;764;-78
2022/02/23 00:10:46;;;;;;;13.93;3.20;;;;;;;;;;528552;28;1474;-78
2022/02/23 00:11:01;;;;;;;15.68;3.22;;;;;;;;;;526897;28;2746;-79
2022/02/23 00:11:16;;;;;;;14.13;2.93;;;;;;;;;;526758;28;1359;-79
2022/02/23 00:11:32;;;;;;;14.97;2.87;;;;;;;;;;526552;28;791;-78
2022/02/23 00:11:47;;;;;;;14.65;2.80;;;;;;;;;;526684;28;827;-78
2022/02/23 00:12:03;;;;;;;12.57;2.70;;;;;;;;;;526899;28;894;-78
2022/02/23 00:12:19;;;;;;;12.57;2.60;;;;;;;;;;524752;28;907;-78
2022/02/23 00:12:34;;;;;;;13.90;2.88;;;;;;;;;;524520;28;762;-79
2022/02/23 00:12:49;;;;;;;14.40;3.10;;;;;;;;;;524493;28;729;-79
2022/02/23 00:13:05;;;;;;;12.73;2.87;;;;;;;;;;524881;28;749;-78
2022/02/23 00:13:20;;;;;;;10.55;2.70;;;;;;;;;;524630;28;784;-78
2022/02/23 00:13:37;;;;;;;11.00;2.93;;;;;;;;;;525134;28;740;-78
2022/02/23 00:13:52;;;;;;;12.77;2.85;;;;;;;;;;526780;28;847;-79
2022/02/23 00:14:07;;;;;;;13.70;2.70;;;;;;;;;;526371;28;772;-79
2022/02/23 00:14:22;;;;;;;12.47;2.93;;;;;;;;;;529172;27;1297;-78
2022/02/23 00:14:38;;;;;;;12.55;3.03;;;;;;;;;;530273;27;1432;-78
2022/02/23 00:14:54;;;;;;;14.70;3.03;;;;;;;;;;526465;28;1369;-78
2022/02/23 00:15:10;;;;;;;15.95;3.17;;;;;;;;;;527386;28;1506;-79
2022/02/23 00:15:25;;;;;;;13.57;3.07;;;;;;;;;;530178;28;767;-79
2022/02/23 00:15:40;;;;;;;11.93;2.70;;;;;;;;;;528830;28;748;-78
2022/02/23 00:15:56;;;;;;;13.23;2.60;;;;;;;;;;528593;28;851;-78
2022/02/23 00:16:11;;;;;;;12.53;2.70;;;;;;;;;;529782;27;987;-79
2022/02/23 00:16:26;;;;;;;13.67;2.97;;;;;;;;;;531073;27;776;-79
2022/02/23 00:16:42;;;;;;;16.20;3.35;;;;;;;;;;528639;28;1190;-78
2022/02/23 00:16:57;;;;;;;16.17;3.27;;;;;;;;;;528664;28;914;-78
2022/02/23 00:17:12;;;;;;;13.93;2.90;;;;;;;;;;527871;28;992;-79
2022/02/23 00:17:28;;;;;;;13.65;2.95;;;;;;;;;;526175;28;973;-78
2022/02/23 00:17:44;;;;;;;15.03;2.97;;;;;;;;;;526704;28;795;-78
2022/02/23 00:17:59;;;;;;;13.90;2.70;;;;;;;;;;526463;28;1902;-78
2022/02/23 00:18:17;;;;;;;14.00;2.90;;;;;;;;;;526895;28;765;-79
2022/02/23 00:18:32;;;;;;;12.60;3.03;;;;;;;;;;528143;28;1294;-79
2022/02/23 00:18:48;;;;;;;12.43;3.10;;;;;;;;;;528166;28;1400;-79
2022/02/23 00:19:03;;;;;;;13.93;3.07;;;;;;;;;;528422;28;1424;-79
2022/02/23 00:19:18;;;;;;;13.13;2.93;;;;;;;;;;526500;28;796;-78
2022/02/23 00:19:33;;;;;;;13.07;2.80;;;;;;;;;;526524;28;998;-79
2022/02/23 00:19:49;;;;;;;13.27;2.70;;;;;;;;;;525890;28;1394;-78
2022/02/23 00:20:05;;;;;;;11.63;2.53;;;;;;;;;;525438;28;1564;-78
2022/02/23 00:20:21;;;;;;;11.80;2.35;;;;;;;;;;524837;28;1226;-79
2022/02/23 00:20:37;;;;;;;13.63;2.70;;;;;;;;;;525490;28;887;-79
2022/02/23 00:20:52;;;;;;;13.73;2.80;;;;;;;;;;524677;28;721;-79
2022/02/23 00:21:08;;;;;;;14.60;2.70;;;;;;;;;;523690;28;844;-79
2022/02/23 00:21:23;;;;;;;14.70;2.97;;;;;;;;;;526950;28;839;-79
2022/02/23 00:21:38;;;;;;;13.67;3.03;;;;;;;;;;528624;28;924;-79
2022/02/23 00:21:53;;;;;;;11.70;2.70;;;;;;;;;;526754;28;804;-79
2022/02/23 00:22:09;;;;;;;12.93;2.80;;;;;;;;;;526476;28;786;-79
2022/02/23 00:22:24;;;;;;;13.55;2.90;;;;;;;;;;526663;28;748;-78
2022/02/23 00:22:40;;;;;;;13.73;2.90;;;;;;;;;;527123;28;749;-78
2022/02/23 00:22:56;;;;;;;14.50;2.92;;;;;;;;;;526576;28;899;-78
2022/02/23 00:23:11;;;;;;;13.30;2.90;;;;;;;;;;524759;28;2425;-79
2022/02/23 00:23:26;;;;;;;14.60;3.20;;;;;;;;;;527251;28;892;-79
2022/02/23 00:23:41;;;;;;;14.77;3.20;;;;;;;;;;528979;28;895;-78
2022/02/23 00:23:57;;;;;;;13.47;3.00;;;;;;;;;;528818;28;1232;-79
2022/02/23 00:24:12;;;;;;;13.88;3.13;;;;;;;;;;526178;28;1359;-78
2022/02/23 00:24:27;;;;;;;13.17;3.00;;;;;;;;;;526279;28;804;-78
2022/02/23 00:24:42;;;;;;;13.03;2.87;;;;;;;;;;526589;28;828;-78
2022/02/23 00:24:58;;;;;;;14.80;2.90;;;;;;;;;;526666;28;1541;-78
2022/02/23 00:25:13;;;;;;;15.65;2.97;;;;;;;;;;529710;27;2010;-79
2022/02/23 00:25:29;;;;;;;14.37;3.00;;;;;;;;;;530554;27;822;-78
2022/02/23 00:25:44;;;;;;;11.73;2.90;;;;;;;;;;528377;28;802;-78
2022/02/23 00:26:00;;;;;;;12.13;2.90;;;;;;;;;;528638;28;974;-78
2022/02/23 00:26:15;;;;;;;13.75;2.85;;;;;;;;;;530561;27;829;-79
2022/02/23 00:26:34;;;;;;;13.03;2.70;;;;;;;;;;530743;27;763;-79
2022/02/23 00:26:49;;;;;;;12.43;2.80;;;;;;;;;;530752;27;1228;-79
2022/02/23 00:27:05;;;;;;;11.70;2.90;;;;;;;;;;530785;27;926;-79
2022/02/23 00:27:20;;;;;;;12.32;2.80;;;;;;;;;;526632;28;1189;-79
2022/02/23 00:27:36;;;;;;;13.07;2.77;;;;;;;;;;526662;28;950;-78
2022/02/23 00:27:51;;;;;;;13.02;2.78;;;;;;;;;;528728;28;1375;-78
2022/02/23 00:28:07;;;;;;;12.33;2.90;;;;;;;;;;528611;28;887;-79
2022/02/23 00:28:22;;;;;;;13.85;2.97;;;;;;;;;;528929;28;1064;-79
2022/02/23 00:28:37;;;;;;;14.47;2.83;;;;;;;;;;528896;28;751;-78
2022/02/23 00:28:52;;;;;;;13.83;2.93;;;;;;;;;;528903;28;883;-79
2022/02/23 00:29:08;;;;;;;14.88;3.03;;;;;;;;;;528291;27;1381;-79
2022/02/23 00:29:23;;;;;;;14.17;3.07;;;;;;;;;;531041;27;795;-78
2022/02/23 00:29:39;;;;;;;14.30;3.30;;;;;;;;;;530650;27;911;-78
2022/02/23 00:29:55;;;;;;;16.27;3.20;;;;;;;;;;530599;27;885;-78
2022/02/23 00:30:10;;;;;;;16.43;3.20;;;;;;;;;;529078;27;1567;-79
2022/02/23 00:30:26;;;;;;;14.63;3.17;;;;;;;;;;530472;27;909;-79
2022/02/23 00:30:41;;;;;;;11.35;2.80;;;;;;;;;;529148;27;886;-78
2022/02/23 00:30:56;;;;;;;11.73;2.90;;;;;;;;;;528824;28;780;-79
2022/02/23 00:31:12;;;;;;;13.68;3.20;;;;;;;;;;529948;27;1165;-79
2022/02/23 00:31:27;;;;;;;14.30;2.93;;;;;;;;;;530796;27;751;-78
2022/02/23 00:31:42;;;;;;;13.10;2.57;;;;;;;;;;531115;27;911;-78
2022/02/23 00:31:58;;;;;;;12.50;2.63;;;;;;;;;;529638;27;1328;-78
2022/02/23 00:32:13;;;;;;;14.47;3.00;;;;;;;;;;528849;27;1400;-79
2022/02/23 00:32:30;;;;;;;13.63;2.80;;;;;;;;;;530039;27;1507;-79
2022/02/23 00:32:46;;;;;;;12.45;2.90;;;;;;;;;;530641;27;906;-78
2022/02/23 00:33:01;;;;;;;11.10;3.07;;;;;;;;;;530711;27;736;-79
2022/02/23 00:33:16;;;;;;;12.00;2.90;;;;;;;;;;530785;27;760;-79
2022/02/23 00:33:32;;;;;;;15.53;2.97;;;;;;;;;;530797;27;772;-78
2022/02/23 00:33:47;;;;;;;14.47;2.90;;;;;;;;;;530672;27;827;-79
2022/02/23 00:34:02;;;;;;;13.27;2.87;;;;;;;;;;530866;27;807;-78
2022/02/23 00:34:17;;;;;;;15.60;3.10;;;;;;;;;;530770;27;740;-78
2022/02/23 00:34:33;;;;;;;14.73;3.03;;;;;;;;;;530810;27;883;-78
2022/02/23 00:34:49;;;;;;;14.98;3.03;;;;;;;;;;530343;27;854;-79
2022/02/23 00:35:05;;;;;;;15.20;3.00;;;;;;;;;;529501;27;1404;-79
2022/02/23 00:35:20;;;;;;;13.83;3.00;;;;;;;;;;528391;28;1154;-79
2022/02/23 00:35:36;;;;;;;13.15;2.92;;;;;;;;;;529344;27;975;-78
2022/02/23 00:35:51;;;;;;;13.23;3.10;;;;;;;;;;530213;27;1166;-78
2022/02/23 00:36:07;;;;;;;14.83;3.10;;;;;;;;;;530830;27;815;-78
2022/02/23 00:36:22;;;;;;;14.63;2.93;;;;;;;;;;530853;27;716;-79
2022/02/23 00:36:38;;;;;;;13.38;2.88;;;;;;;;;;530634;27;997;-79
2022/02/23 00:36:54;;;;;;;13.00;2.70;;;;;;;;;;530101;27;1334;-79
2022/02/23 00:37:09;;;;;;;13.10;2.92;;;;;;;;;;529838;27;783;-79
2022/02/23 00:37:25;;;;;;;14.97;3.17;;;;;;;;;;526806;28;1149;-78
2022/02/23 00:37:40;;;;;;;14.40;3.10;;;;;;;;;;526440;28;804;-78
2022/02/23 00:37:55;;;;;;;14.25;3.08;;;;;;;;;;526554;28;1910;-79
2022/02/23 00:38:10;;;;;;;15.67;3.20;;;;;;;;;;527252;28;934;-79
2022/02/23 00:38:26;;;;;;;14.93;3.17;;;;;;;;;;528530;28;1007;-79
2022/02/23 00:38:41;;;;;;;12.07;2.90;;;;;;;;;;528910;28;784;-78
2022/02/23 00:38:56;;;;;;;11.97;3.00;;;;;;;;;;528679;28;1085;-78
2022/02/23 00:39:12;;;;;;;13.30;3.00;;;;;;;;;;528395;27;938;-77
2022/02/23 00:39:27;;;;;;;13.30;2.80;;;;;;;;;;530669;27;1001;-78
2022/02/23 00:39:43;;;;;;;14.00;3.10;;;;;;;;;;530564;27;827;-78
2022/02/23 00:39:58;;;;;;;13.32;3.22;;;;;;;;;;530790;27;1462;-79
2022/02/23 00:40:13;;;;;;;12.13;3.00;;;;;;;;;;530092;27;1620;-79
2022/02/23 00:40:29;;;;;;;14.67;2.90;;;;;;;;;;528827;28;950;-79
2022/02/23 00:40:44;;;;;;;18.08;3.10;;;;;;;;;;528556;28;874;-79
2022/02/23 00:41:00;;;;;;;15.57;2.97;;;;;;;;;;528625;28;780;-79
2022/02/23 00:41:15;;;;;;;12.73;2.90;;;;;;;;;;528591;28;1433;-78
2022/02/23 00:41:30;;;;;;;13.20;3.20;;;;;;;;;;529185;28;724;-78
2022/02/23 00:41:46;;;;;;;11.23;2.83;;;;;;;;;;529082;28;756;-79
2022/02/23 00:42:01;;;;;;;12.00;2.60;;;;;;;;;;530963;27;930;-80
2022/02/23 00:42:16;;;;;;;12.90;2.60;;;;;;;;;;529359;27;812;-80
2022/02/23 00:42:32;;;;;;;13.43;2.95;;;;;;;;;;528694;28;728;-78
2022/02/23 00:42:47;;;;;;;13.77;3.10;;;;;;;;;;529132;28;752;-79
2022/02/23 00:43:06;;;;;;;13.93;3.00;;;;;;;;;;528538;28;815;-80
2022/02/23 00:43:21;;;;;;;13.77;2.78;;;;;;;;;;528563;28;945;-79
2022/02/23 00:43:36;;;;;;;12.43;2.63;;;;;;;;;;526891;28;1841;-78
2022/02/23 00:43:52;;;;;;;11.48;2.70;;;;;;;;;;526640;28;768;-78
2022/02/23 00:44:07;;;;;;;12.30;2.90;;;;;;;;;;526290;28;713;-78
2022/02/23 00:44:22;;;;;;;14.13;2.87;;;;;;;;;;527048;28;748;-78
2022/02/23 00:44:37;;;;;;;14.27;2.70;;;;;;;;;;524553;28;1363;-79
2022/02/23 00:44:53;;;;;;;12.73;2.70;;;;;;;;;;524889;28;844;-78
2022/02/23 00:45:08;;;;;;;11.33;2.50;;;;;;;;;;524997;28;1544;-78
2022/02/23 00:45:25;;;;;;;12.45;2.60;;;;;;;;;;526551;28;1172;-79
2022/02/23 00:45:40;;;;;;;14.57;3.00;;;;;;;;;;526384;28;1339;-79
2022/02/23 00:45:56;;;;;;;13.50;3.10;;;;;;;;;;524358;28;1210;-79
2022/02/23 00:46:11;;;;;;;12.03;2.90;;;;;;;;;;521221;28;800;-79
2022/02/23 00:46:27;;;;;;;12.65;2.55;;;;;;;;;;521112;28;856;-79
2022/02/23 00:46:42;;;;;;;14.60;2.67;;;;;;;;;;522706;28;863;-79
2022/02/23 00:46:59;;;;;;;15.77;2.97;;;;;;;;;;522754;28;955;-79
2022/02/23 00:47:14;;;;;;;14.07;2.85;;;;;;;;;;523291;28;852;-78
2022/02/23 00:47:29;;;;;;;12.33;2.70;;;;;;;;;;525036;28;819;-78
2022/02/23 00:47:45;;;;;;;12.13;2.77;;;;;;;;;;523014;28;1482;-79
2022/02/23 00:48:00;;;;;;;12.90;2.87;;;;;;;;;;525134;28;875;-79
2022/02/23 00:48:16;;;;;;;12.40;2.88;;;;;;;;;;526858;28;942;-79
2022/02/23 00:48:31;;;;;;;13.47;2.87;;;;;;;;;;524371;28;1126;-79
2022/02/23 00:48:46;;;;;;;15.17;3.30;;;;;;;;;;526030;28;1093;-79
2022/02/23 00:49:01;;;;;;;12.77;3.15;;;;;;;;;;526720;28;811;-79
2022/02/23 00:49:17;;;;;;;13.00;2.97;;;;;;;;;;526299;28;752;-79
2022/02/23 00:49:32;;;;;;;12.53;3.03;;;;;;;;;;526262;28;1119;-79
2022/02/23 00:49:48;;;;;;;11.77;2.72;;;;;;;;;;530434;27;981;-79
2022/02/23 00:50:04;;;;;;;12.77;2.77;;;;;;;;;;530068;27;1540;-79
2022/02/23 00:50:19;;;;;;;13.38;2.90;;;;;;;;;;530066;27;858;-78
2022/02/23 00:50:35;;;;;;;14.10;3.00;;;;;;;;;;530319;27;831;-79
2022/02/23 00:50:51;;;;;;;13.15;2.90;;;;;;;;;;528681;28;1071;-79
2022/02/23 00:51:07;;;;;;;14.85;3.10;;;;;;;;;;527206;28;1249;-79
2022/02/23 00:51:22;;;;;;;17.37;3.20;;;;;;;;;;528787;28;745;-79
2022/02/23 00:51:37;;;;;;;14.48;3.17;;;;;;;;;;528632;28;803;-78
2022/02/23 00:51:53;;;;;;;14.60;3.00;;;;;;;;;;529252;28;783;-78
2022/02/23 00:52:08;;;;;;;14.25;2.78;;;;;;;;;;528500;28;946;-79
2022/02/23 00:52:24;;;;;;;13.87;2.87;;;;;;;;;;524424;28;746;-79
2022/02/23 00:52:39;;;;;;;15.35;3.00;;;;;;;;;;524938;28;978;-78
2022/02/23 00:52:55;;;;;;;12.73;2.70;;;;;;;;;;527275;28;1392;-78
2022/02/23 00:53:10;;;;;;;14.17;2.80;;;;;;;;;;529203;28;771;-79
2022/02/23 00:53:25;;;;;;;17.25;3.00;;;;;;;;;;529014;28;760;-79
2022/02/23 00:53:40;;;;;;;13.00;2.83;;;;;;;;;;528884;28;828;-79
2022/02/23 00:53:57;;;;;;;11.33;2.63;;;;;;;;;;527092;28;1188;-78
2022/02/23 00:54:12;;;;;;;12.35;2.65;;;;;;;;;;526666;28;843;-79
2022/02/23 00:54:27;;;;;;;14.23;2.90;;;;;;;;;;526774;28;732;-79
2022/02/23 00:54:43;;;;;;;14.67;2.83;;;;;;;;;;527379;28;993;-79
2022/02/23 00:54:58;;;;;;;12.93;3.00;;;;;;;;;;526576;28;1599;-79
2022/02/23 00:55:13;;;;;;;12.80;3.03;;;;;;;;;;527029;28;1770;-79
2022/02/23 00:55:29;;;;;;;13.33;2.90;;;;;;;;;;528925;28;736;-78
2022/02/23 00:55:44;;;;;;;13.05;2.70;;;;;;;;;;526615;28;1240;-78
2022/02/23 00:55:59;;;;;;;15.07;2.70;;;;;;;;;;528917;28;686;-79
2022/02/23 00:56:15;;;;;;;14.50;2.83;;;;;;;;;;530938;27;858;-79
2022/02/23 00:56:30;;;;;;;13.70;2.90;;;;;;;;;;531044;27;945;-78
2022/02/23 00:56:46;;;;;;;14.13;2.87;;;;;;;;;;528966;28;1172;-79
2022/02/23 00:57:03;;;;;;;13.35;2.80;;;;;;;;;;529207;28;1041;-79
2022/02/23 00:57:19;;;;;;;13.35;2.90;;;;;;;;;;527121;28;894;-79
2022/02/23 00:57:34;;;;;;;14.18;3.03;;;;;;;;;;527398;28;864;-79
2022/02/23 00:57:49;;;;;;;14.70;2.90;;;;;;;;;;526403;28;963;-79
2022/02/23 00:58:04;;;;;;;13.80;2.80;;;;;;;;;;526769;28;1917;-79
2022/02/23 00:58:20;;;;;;;12.55;2.90;;;;;;;;;;527290;28;882;-79
2022/02/23 00:58:35;;;;;;;11.83;2.80;;;;;;;;;;529336;27;1248;-79
2022/02/23 00:58:50;;;;;;;14.07;2.67;;;;;;;;;;531209;27;822;-78
2022/02/23 00:59:06;;;;;;;15.23;2.78;;;;;;;;;;528665;28;1181;-79
2022/02/23 00:59:21;;;;;;;13.03;2.80;;;;;;;;;;529006;28;824;-79
2022/02/23 00:59:36;;;;;;;12.10;2.87;;;;;;;;;;528874;28;1252;-79
2022/02/23 00:59:52;;;;;;;10.83;2.67;;;;;;;;;;528680;28;917;-79
2022/02/23 01:00:08;;;;;;;12.53;2.90;;;;;;;;;;527952;28;1428;-78
2022/02/23 01:00:23;;;;;;;13.95;2.78;;;;;;;;;;526154;28;1321;-79
2022/02/23 01:00:38;;;;;;;12.70;2.40;;;;;;;;;;527559;28;950;-79
2022/02/23 01:00:54;;;;;;;12.68;2.45;;;;;;;;;;524537;28;1340;-79
2022/02/23 01:01:09;;;;;;;11.10;2.30;;;;;;;;;;526014;28;962;-78
2022/02/23 01:01:24;;;;;;;12.07;2.63;;;;;;;;;;527055;28;1157;-78
2022/02/23 01:01:40;;;;;;;13.15;2.95;;;;;;;;;;524697;28;1203;-77
2022/02/23 01:01:55;;;;;;;12.13;2.70;;;;;;;;;;524732;28;720;-78
2022/02/23 01:02:11;;;;;;;12.43;2.60;;;;;;;;;;525043;28;1178;-78
2022/02/23 01:02:26;;;;;;;11.47;2.50;;;;;;;;;;526862;28;755;-78
2022/02/23 01:02:42;;;;;;;10.88;2.47;;;;;;;;;;527171;28;795;-78
2022/02/23 01:02:57;;;;;;;11.60;2.70;;;;;;;;;;528986;28;752;-78
2022/02/23 01:03:12;;;;;;;13.70;2.93;;;;;;;;;;526988;28;1190;-79
2022/02/23 01:03:28;;;;;;;14.43;2.92;;;;;;;;;;526690;28;756;-79
2022/02/23 01:03:43;;;;;;;13.33;2.70;;;;;;;;;;526607;28;879;-79
2022/02/23 01:03:58;;;;;;;13.10;2.70;;;;;;;;;;527035;28;843;-79
2022/02/23 01:04:13;;;;;;;13.80;2.73;;;;;;;;;;526776;28;1154;-78
2022/02/23 01:04:29;;;;;;;16.20;2.80;;;;;;;;;;526758;28;728;-78
2022/02/23 01:04:44;;;;;;;14.87;2.70;;;;;;;;;;524543;28;1181;-78
2022/02/23 01:04:59;;;;;;;12.63;2.55;;;;;;;;;;524706;28;1342;-78
2022/02/23 01:05:15;;;;;;;12.33;2.50;;;;;;;;;;526561;28;725;-78
2022/02/23 01:05:30;;;;;;;12.60;2.50;;;;;;;;;;524722;28;733;-79
2022/02/23 01:05:45;;;;;;;15.48;2.65;;;;;;;;;;524271;28;1198;-79
2022/02/23 01:06:01;;;;;;;13.33;2.53;;;;;;;;;;524638;28;1160;-79
2022/02/23 01:06:16;;;;;;;10.87;2.50;;;;;;;;;;524503;28;902;-79
2022/02/23 01:06:32;;;;;;;12.63;2.70;;;;;;;;;;524560;28;934;-79
2022/02/23 01:06:47;;;;;;;12.93;2.80;;;;;;;;;;526791;28;1165;-79
2022/02/23 01:07:03;;;;;;;12.57;2.88;;;;;;;;;;525750;28;1445;-79
2022/02/23 01:07:19;;;;;;;12.93;2.75;;;;;;;;;;522687;28;1449;-78
2022/02/23 01:07:34;;;;;;;12.43;2.70;;;;;;;;;;523935;28;1070;-78
2022/02/23 01:07:49;;;;;;;11.90;2.60;;;;;;;;;;525196;28;1250;-79
2022/02/23 01:08:05;;;;;;;11.00;2.50;;;;;;;;;;527146;28;914;-79
2022/02/23 01:08:20;;;;;;;11.10;2.78;;;;;;;;;;528670;28;1382;-79
2022/02/23 01:08:36;;;;;;;13.20;2.90;;;;;;;;;;528993;28;1152;-79
2022/02/23 01:08:51;;;;;;;11.80;2.60;;;;;;;;;;527357;28;1155;-78
2022/02/23 01:09:06;;;;;;;11.02;2.83;;;;;;;;;;526404;28;879;-79
2022/02/23 01:09:21;;;;;;;13.17;3.00;;;;;;;;;;526952;28;927;-79
2022/02/23 01:09:37;;;;;;;14.93;2.60;;;;;;;;;;526716;28;1597;-79
2022/02/23 01:09:52;;;;;;;15.13;2.63;;;;;;;;;;528481;28;760;-79
2022/02/23 01:10:09;;;;;;;15.43;2.90;;;;;;;;;;525837;28;1554;-79
2022/02/23 01:10:24;;;;;;;13.82;3.00;;;;;;;;;;526527;28;823;-78
2022/02/23 01:10:40;;;;;;;11.40;2.97;;;;;;;;;;527521;28;1171;-79
2022/02/23 01:10:55;;;;;;;10.68;2.63;;;;;;;;;;529274;28;913;-79
2022/02/23 01:11:10;;;;;;;12.60;2.63;;;;;;;;;;528970;28;793;-79
2022/02/23 01:11:26;;;;;;;14.50;2.67;;;;;;;;;;528996;28;798;-79
2022/02/23 01:11:41;;;;;;;15.05;2.85;;;;;;;;;;528719;28;1400;-79
2022/02/23 01:11:56;;;;;;;13.20;3.03;;;;;;;;;;529406;28;763;-79
2022/02/23 01:12:11;;;;;;;11.80;2.80;;;;;;;;;;529900;27;1257;-78
2022/02/23 01:12:27;;;;;;;11.82;2.63;;;;;;;;;;528402;28;902;-79
2022/02/23 01:12:42;;;;;;;10.63;2.40;;;;;;;;;;526752;28;926;-78
2022/02/23 01:12:58;;;;;;;10.68;2.58;;;;;;;;;;524595;28;1344;-78
2022/02/23 01:13:13;;;;;;;12.23;2.77;;;;;;;;;;525040;28;831;-79
2022/02/23 01:13:29;;;;;;;13.57;2.70;;;;;;;;;;525081;28;847;-79
2022/02/23 01:13:44;;;;;;;13.47;2.70;;;;;;;;;;526620;28;1114;-79
2022/02/23 01:14:00;;;;;;;13.77;2.77;;;;;;;;;;526498;28;1257;-79
2022/02/23 01:14:15;;;;;;;13.77;2.70;;;;;;;;;;526300;28;818;-79
2022/02/23 01:14:31;;;;;;;11.45;2.50;;;;;;;;;;526246;28;907;-79
2022/02/23 01:14:46;;;;;;;10.53;2.57;;;;;;;;;;526714;28;1379;-79
2022/02/23 01:15:02;;;;;;;10.30;2.50;;;;;;;;;;528250;27;1570;-79
2022/02/23 01:15:18;;;;;;;12.15;2.42;;;;;;;;;;530667;27;945;-79
2022/02/23 01:15:34;;;;;;;14.47;2.60;;;;;;;;;;530346;27;973;-79
2022/02/23 01:15:49;;;;;;;13.57;2.40;;;;;;;;;;528687;28;845;-79
2022/02/23 01:16:04;;;;;;;12.83;2.73;;;;;;;;;;529078;28;1076;-79
2022/02/23 01:16:20;;;;;;;14.53;3.10;;;;;;;;;;530840;27;879;-79
2022/02/23 01:16:36;;;;;;;12.87;2.83;;;;;;;;;;530533;27;822;-79
2022/02/23 01:16:51;;;;;;;11.85;2.60;;;;;;;;;;528507;28;1256;-79
2022/02/23 01:17:06;;;;;;;13.83;2.67;;;;;;;;;;526512;28;1342;-79
2022/02/23 01:17:22;;;;;;;11.90;2.58;;;;;;;;;;526462;28;1166;-79
2022/02/23 01:17:38;;;;;;;11.93;2.53;;;;;;;;;;526408;28;866;-79
2022/02/23 01:17:54;;;;;;;13.23;2.58;;;;;;;;;;526895;28;800;-79
2022/02/23 01:18:09;;;;;;;12.23;2.43;;;;;;;;;;528642;28;1902;-79
2022/02/23 01:18:25;;;;;;;12.48;2.42;;;;;;;;;;528957;28;910;-79
2022/02/23 01:18:40;;;;;;;13.03;2.53;;;;;;;;;;528902;27;819;-79
2022/02/23 01:18:55;;;;;;;12.43;2.47;;;;;;;;;;528614;28;1125;-79
2022/02/23 01:19:11;;;;;;;11.40;2.33;;;;;;;;;;528937;27;846;-79
2022/02/23 01:19:26;;;;;;;11.13;2.43;;;;;;;;;;530757;27;941;-80
2022/02/23 01:19:42;;;;;;;13.85;2.80;;;;;;;;;;527985;28;898;-79
2022/02/23 01:19:58;;;;;;;13.13;2.63;;;;;;;;;;526462;28;811;-79
2022/02/23 01:20:14;;;;;;;10.38;2.25;;;;;;;;;;527945;28;1687;-79
2022/02/23 01:20:29;;;;;;;9.73;2.30;;;;;;;;;;526736;28;927;-79
2022/02/23 01:20:44;;;;;;;10.02;2.55;;;;;;;;;;528713;27;926;-79
2022/02/23 01:20:59;;;;;;;9.60;2.43;;;;;;;;;;528770;28;1177;-79
2022/02/23 01:21:15;;;;;;;12.33;2.53;;;;;;;;;;526885;28;831;-79
2022/02/23 01:21:30;;;;;;;14.02;2.60;;;;;;;;;;524488;28;1182;-79
2022/02/23 01:21:45;;;;;;;12.93;2.57;;;;;;;;;;526396;28;767;-79
2022/02/23 01:22:01;;;;;;;11.47;2.43;;;;;;;;;;526566;28;935;-80
2022/02/23 01:22:16;;;;;;;10.45;2.40;;;;;;;;;;527912;28;1248;-79
2022/02/23 01:22:31;;;;;;;11.40;2.47;;;;;;;;;;528732;28;914;-79
2022/02/23 01:22:47;;;;;;;11.43;2.50;;;;;;;;;;528499;28;914;-79
2022/02/23 01:23:02;;;;;;;11.47;2.77;;;;;;;;;;530912;27;790;-79
2022/02/23 01:23:18;;;;;;;11.55;2.58;;;;;;;;;;528957;28;1287;-79
2022/02/23 01:23:34;;;;;;;11.75;2.53;;;;;;;;;;530909;27;859;-79
2022/02/23 01:23:49;;;;;;;13.45;2.60;;;;;;;;;;528583;28;1385;-79
2022/02/23 01:24:05;;;;;;;13.03;2.57;;;;;;;;;;528247;28;740;-80
2022/02/23 01:24:20;;;;;;;12.38;2.67;;;;;;;;;;528685;28;882;-79
2022/02/23 01:24:35;;;;;;;11.17;2.60;;;;;;;;;;528856;28;759;-79
2022/02/23 01:24:51;;;;;;;10.50;2.40;;;;;;;;;;527883;28;1182;-79
2022/02/23 01:25:06;;;;;;;10.75;2.55;;;;;;;;;;525709;28;1611;-79
2022/02/23 01:25:24;;;;;;;10.33;2.63;;;;;;;;;;527596;28;960;-79
2022/02/23 01:25:39;;;;;;;11.05;2.60;;;;;;;;;;527790;28;867;-79
2022/02/23 01:25:54;;;;;;;12.20;2.67;;;;;;;;;;528772;28;923;-79
2022/02/23 01:26:10;;;;;;;13.83;3.00;;;;;;;;;;527034;28;902;-79
2022/02/23 01:26:25;;;;;;;12.90;2.80;;;;;;;;;;526429;28;744;-79
2022/02/23 01:26:41;;;;;;;13.17;2.50;;;;;;;;;;527050;28;727;-79
2022/02/23 01:26:56;;;;;;;12.55;2.50;;;;;;;;;;526635;28;1229;-79
2022/02/23 01:27:11;;;;;;;11.07;2.50;;;;;;;;;;528825;28;941;-79
2022/02/23 01:27:27;;;;;;;12.10;2.57;;;;;;;;;;528708;28;902;-79
2022/02/23 01:27:42;;;;;;;12.65;2.53;;;;;;;;;;528898;28;1092;-79
2022/02/23 01:28:02;;;;;;;12.73;2.50;;;;;;;;;;528703;28;1319;-78
2022/02/23 01:28:17;;;;;;;10.85;2.40;;;;;;;;;;528718;28;1061;-78
2022/02/23 01:28:33;;;;;;;10.95;2.28;;;;;;;;;;528917;28;1270;-79
2022/02/23 01:28:48;;;;;;;12.77;2.43;;;;;;;;;;529773;27;740;-79
2022/02/23 01:29:04;;;;;;;14.00;2.70;;;;;;;;;;530137;27;1343;-79
2022/02/23 01:29:19;;;;;;;14.10;2.77;;;;;;;;;;530860;27;988;-79
2022/02/23 01:29:34;;;;;;;13.10;2.73;;;;;;;;;;530756;27;728;-79
2022/02/23 01:29:50;;;;;;;12.13;2.70;;;;;;;;;;528387;28;787;-79
2022/02/23 01:30:06;;;;;;;13.33;2.80;;;;;;;;;;528211;28;1549;-79
2022/02/23 01:30:21;;;;;;;13.13;2.67;;;;;;;;;;529059;27;1193;-79
2022/02/23 01:30:37;;;;;;;11.93;2.60;;;;;;;;;;528854;28;1131;-79
2022/02/23 01:30:52;;;;;;;12.38;2.60;;;;;;;;;;528566;28;758;-79
2022/02/23 01:31:07;;;;;;;12.73;2.37;;;;;;;;;;528382;28;799;-79
2022/02/23 01:31:23;;;;;;;12.43;2.50;;;;;;;;;;528744;28;740;-79
2022/02/23 01:31:38;;;;;;;12.77;2.73;;;;;;;;;;529003;27;752;-79
2022/02/23 01:31:53;;;;;;;11.57;2.60;;;;;;;;;;530638;27;1450;-78
2022/02/23 01:32:09;;;;;;;11.73;2.57;;;;;;;;;;530069;27;790;-79
2022/02/23 01:32:25;;;;;;;11.87;2.60;;;;;;;;;;528465;28;926;-79
2022/02/23 01:32:40;;;;;;;10.40;2.50;;;;;;;;;;528809;28;708;-79
2022/02/23 01:32:55;;;;;;;10.93;2.45;;;;;;;;;;526288;28;1173;-79
2022/02/23 01:33:11;;;;;;;12.77;2.57;;;;;;;;;;524111;28;1354;-79
2022/02/23 01:33:27;;;;;;;13.87;2.70;;;;;;;;;;524604;28;760;-79
2022/02/23 01:33:42;;;;;;;13.38;2.83;;;;;;;;;;524804;28;748;-79
2022/02/23 01:33:57;;;;;;;12.10;2.67;;;;;;;;;;526595;28;1472;-78
2022/02/23 01:34:12;;;;;;;11.00;2.40;;;;;;;;;;525236;28;1385;-79
2022/02/23 01:34:28;;;;;;;11.43;2.43;;;;;;;;;;522341;28;1299;-79
2022/02/23 01:34:43;;;;;;;13.93;2.80;;;;;;;;;;524844;28;750;-79
2022/02/23 01:34:58;;;;;;;13.18;2.92;;;;;;;;;;526541;28;1368;-79
2022/02/23 01:35:14;;;;;;;12.57;2.67;;;;;;;;;;526423;28;1557;-79